Time;durP1;ratioP1;P1;durP2;ratioP2;P2;SDS_P1;SDS_P2;PMS_P1;PMS_P2;Temp;Humidity;BMP_temperature;BMP_pressure;BME280_temperature;BME280_humidity;BME280_pressure;Samples;Min_cycle;Max_cycle;Signal;HPM_P1;HPM_P2
2022/12/15 00:40:57;;;;;;;14.67;9.87;;;;;;;;;;5017561;28;20228;-70
2022/12/15 00:43:22;;;;;;;17.67;10.10;;;;;;;;;;5031735;28;20235;-70
2022/12/15 00:48:32;;;;;;;20.73;10.20;;;;;;;;;;5036204;28;20208;-70
2022/12/15 00:50:57;;;;;;;15.83;9.90;;;;;;;;;;5035897;28;20182;-70
2022/12/15 01:20:43;;;;;;;18.87;10.57;;;;;;;;;;5025208;28;20189;-70
2022/12/15 01:23:08;;;;;;;20.20;10.93;;;;;;;;;;5030894;28;20182;-70
2022/12/15 01:25:36;;;;;;;17.30;10.73;;;;;;;;;;5038125;28;20541;-70
2022/12/15 01:28:01;;;;;;;18.87;10.93;;;;;;;;;;5029649;28;20258;-69
2022/12/15 01:30:27;;;;;;;17.40;9.80;;;;;;;;;;5027074;28;20186;-69
2022/12/15 01:32:52;;;;;;;20.23;10.63;;;;;;;;;;5029672;28;20179;-70
2022/12/15 01:35:18;;;;;;;16.27;11.10;;;;;;;;;;5030548;28;20590;-70
2022/12/15 01:37:43;;;;;;;16.70;9.90;;;;;;;;;;5031224;28;20572;-70
2022/12/15 01:42:55;;;;;;;16.60;10.00;;;;;;;;;;5030749;28;20189;-71
2022/12/15 01:45:23;;;;;;;17.07;10.37;;;;;;;;;;5031215;28;20301;-70
2022/12/15 01:47:52;;;;;;;19.03;10.10;;;;;;;;;;5027739;28;20170;-69
2022/12/15 01:50:18;;;;;;;16.77;9.90;;;;;;;;;;5030560;28;20581;-70
2022/12/15 01:52:43;;;;;;;17.37;10.07;;;;;;;;;;5030584;28;20174;-69
2022/12/15 01:55:09;;;;;;;21.07;10.03;;;;;;;;;;5029330;28;20670;-71
2022/12/15 01:57:35;;;;;;;17.97;10.77;;;;;;;;;;5030188;28;20269;-69
2022/12/15 02:00:01;;;;;;;19.03;10.77;;;;;;;;;;5031548;28;20208;-71
2022/12/15 02:02:28;;;;;;;20.03;10.83;;;;;;;;;;5030211;28;20190;-71
2022/12/15 02:04:55;;;;;;;19.13;11.53;;;;;;;;;;5032084;28;20292;-69
2022/12/15 02:07:21;;;;;;;21.10;12.30;;;;;;;;;;5030799;28;20203;-69
2022/12/15 02:09:47;;;;;;;17.17;10.00;;;;;;;;;;5031624;28;20193;-69
2022/12/15 02:12:30;;;;;;;19.27;9.97;;;;;;;;;;5030291;28;20178;-69
2022/12/15 02:15:04;;;;;;;19.03;10.13;;;;;;;;;;5024459;28;20186;-69
2022/12/15 02:17:42;;;;;;;18.00;10.10;;;;;;;;;;5018344;28;20564;-69
2022/12/15 02:20:22;;;;;;;17.97;10.77;;;;;;;;;;5025417;28;20707;-69
2022/12/15 02:22:53;;;;;;;17.97;10.30;;;;;;;;;;5030507;28;20224;-69
2022/12/15 02:25:21;;;;;;;18.47;9.63;;;;;;;;;;5033698;28;20210;-69
2022/12/15 02:27:53;;;;;;;20.63;10.43;;;;;;;;;;5030803;28;20667;-69
2022/12/15 02:30:21;;;;;;;21.87;10.70;;;;;;;;;;5030107;28;20244;-69
2022/12/15 02:32:52;;;;;;;17.60;10.77;;;;;;;;;;5032877;28;20185;-69
2022/12/15 02:35:25;;;;;;;19.77;9.57;;;;;;;;;;5032425;28;20561;-69
2022/12/15 02:37:50;;;;;;;16.37;10.73;;;;;;;;;;5031224;28;20187;-69
2022/12/15 02:40:16;;;;;;;21.03;11.07;;;;;;;;;;5032056;28;20671;-69
2022/12/15 02:42:43;;;;;;;16.50;9.70;;;;;;;;;;5031671;28;20664;-69
2022/12/15 02:45:10;;;;;;;17.87;10.17;;;;;;;;;;5034670;28;20206;-70
2022/12/15 02:47:44;;;;;;;19.00;10.67;;;;;;;;;;5032726;28;20271;-70
2022/12/15 02:50:27;;;;;;;17.60;9.63;;;;;;;;;;5033145;28;20560;-69
2022/12/15 02:52:52;;;;;;;17.77;9.73;;;;;;;;;;5027181;28;20683;-71
2022/12/15 02:55:30;;;;;;;17.37;9.90;;;;;;;;;;5030762;28;20190;-69
2022/12/15 02:58:00;;;;;;;17.87;9.67;;;;;;;;;;5034357;28;20206;-69
2022/12/15 03:00:26;;;;;;;19.57;10.10;;;;;;;;;;5034501;28;20240;-71
2022/12/15 03:02:52;;;;;;;16.50;9.87;;;;;;;;;;5032291;28;20602;-70
2022/12/15 03:05:18;;;;;;;15.33;9.60;;;;;;;;;;5034194;28;20221;-70
2022/12/15 03:07:43;;;;;;;17.07;9.80;;;;;;;;;;5032925;28;20232;-70
2022/12/15 03:10:10;;;;;;;18.87;10.67;;;;;;;;;;5033967;28;20179;-70
2022/12/15 03:12:35;;;;;;;18.30;10.27;;;;;;;;;;5032369;28;20201;-70
2022/12/15 03:15:01;;;;;;;17.93;10.00;;;;;;;;;;5034159;28;20190;-70
2022/12/15 03:17:26;;;;;;;16.90;10.03;;;;;;;;;;5031368;28;20190;-69
2022/12/15 03:19:51;;;;;;;15.23;9.37;;;;;;;;;;5032291;28;20234;-70
2022/12/15 03:22:16;;;;;;;16.97;10.13;;;;;;;;;;5029687;28;20662;-69
2022/12/15 03:24:41;;;;;;;16.10;9.30;;;;;;;;;;5036628;28;20198;-69
2022/12/15 03:27:07;;;;;;;17.63;9.73;;;;;;;;;;5032636;28;20187;-69
2022/12/15 03:29:32;;;;;;;18.20;10.03;;;;;;;;;;5026824;23;20235;-75
2022/12/15 03:31:57;;;;;;;17.80;10.00;;;;;;;;;;5017364;28;20693;-75
2022/12/15 03:34:22;;;;;;;17.30;10.23;;;;;;;;;;5018244;28;20181;-75
2022/12/15 03:36:47;;;;;;;18.93;10.83;;;;;;;;;;5027445;28;20211;-75
2022/12/15 03:39:13;;;;;;;18.10;9.60;;;;;;;;;;5028675;28;20294;-75
2022/12/15 03:41:40;;;;;;;15.70;9.47;;;;;;;;;;5017344;28;20260;-76
2022/12/15 03:44:05;;;;;;;20.13;10.23;;;;;;;;;;5016834;28;20190;-75
2022/12/15 03:46:31;;;;;;;17.57;10.00;;;;;;;;;;5013903;28;21626;-75
2022/12/15 03:48:56;;;;;;;21.80;10.23;;;;;;;;;;5011814;28;20219;-76
2022/12/15 03:51:21;;;;;;;18.53;10.90;;;;;;;;;;5014870;28;20186;-75
2022/12/15 03:53:48;;;;;;;13.70;9.23;;;;;;;;;;5013728;28;20262;-75
2022/12/15 03:56:13;;;;;;;17.47;9.70;;;;;;;;;;5015229;28;20191;-75
2022/12/15 03:58:38;;;;;;;16.87;9.67;;;;;;;;;;5012009;28;20199;-75
2022/12/15 04:01:22;;;;;;;19.43;10.53;;;;;;;;;;5014042;28;20262;-75
2022/12/15 04:03:47;;;;;;;20.13;9.97;;;;;;;;;;5008597;28;20579;-76
2022/12/15 04:06:13;;;;;;;18.77;9.80;;;;;;;;;;5014045;28;20206;-76
2022/12/15 04:08:38;;;;;;;19.20;9.83;;;;;;;;;;5014758;28;20190;-76
2022/12/15 04:11:03;;;;;;;17.00;10.03;;;;;;;;;;5015569;28;20262;-75
2022/12/15 04:13:28;;;;;;;18.77;9.87;;;;;;;;;;5015089;28;20175;-76
2022/12/15 04:15:53;;;;;;;16.77;9.60;;;;;;;;;;5037001;28;20174;-76
2022/12/15 04:18:19;;;;;;;19.20;10.13;;;;;;;;;;5007772;28;20620;-76
2022/12/15 04:20:44;;;;;;;16.23;9.60;;;;;;;;;;5014654;28;20174;-76
2022/12/15 04:23:09;;;;;;;15.13;9.43;;;;;;;;;;5010433;28;20179;-76
2022/12/15 05:34:08;;;;;;;17.40;10.13;;;;;;;;;;5016934;28;20183;-76
2022/12/15 05:36:34;;;;;;;18.47;10.57;;;;;;;;;;5009310;28;20195;-75
2022/12/15 05:38:59;;;;;;;21.60;10.60;;;;;;;;;;5014090;28;20201;-75
2022/12/15 05:41:24;;;;;;;18.30;11.00;;;;;;;;;;5018637;28;20449;-76
2022/12/15 05:43:49;;;;;;;20.07;11.13;;;;;;;;;;5012047;28;20207;-76
2022/12/15 05:46:14;;;;;;;15.47;9.93;;;;;;;;;;5020258;28;20243;-76
2022/12/15 05:48:40;;;;;;;20.00;11.90;;;;;;;;;;5018692;28;20226;-76
2022/12/15 05:51:07;;;;;;;26.97;12.03;;;;;;;;;;5023700;28;20188;-76
2022/12/15 05:53:32;;;;;;;19.37;10.83;;;;;;;;;;5020296;28;20175;-75
2022/12/15 05:56:01;;;;;;;21.00;12.47;;;;;;;;;;5025742;28;20205;-76
2022/12/15 05:58:26;;;;;;;22.07;12.37;;;;;;;;;;5022668;28;20211;-76
2022/12/15 06:00:51;;;;;;;18.37;11.60;;;;;;;;;;5025166;28;20174;-76
2022/12/15 06:03:17;;;;;;;20.10;11.10;;;;;;;;;;5019457;28;20179;-75
2022/12/15 06:05:42;;;;;;;21.07;11.33;;;;;;;;;;5026752;28;20206;-75
2022/12/15 06:08:07;;;;;;;19.37;10.90;;;;;;;;;;5023981;28;20260;-75
2022/12/15 06:10:32;;;;;;;22.47;12.27;;;;;;;;;;5026369;28;20181;-75
2022/12/15 06:12:58;;;;;;;24.17;12.53;;;;;;;;;;5020516;28;20188;-76
2022/12/15 06:15:23;;;;;;;20.50;11.67;;;;;;;;;;5014920;28;20190;-76
2022/12/15 06:17:48;;;;;;;19.77;11.40;;;;;;;;;;5010707;28;20179;-75
2022/12/15 06:20:13;;;;;;;20.07;12.63;;;;;;;;;;5013329;28;20265;-76
2022/12/15 06:22:38;;;;;;;20.50;12.83;;;;;;;;;;5015158;28;20180;-76
2022/12/15 06:25:04;;;;;;;22.83;12.63;;;;;;;;;;5020434;28;20209;-76
2022/12/15 06:27:29;;;;;;;18.30;11.30;;;;;;;;;;5021783;28;20174;-76
2022/12/15 06:29:54;;;;;;;24.30;11.97;;;;;;;;;;5020110;28;20206;-75
2022/12/15 06:32:20;;;;;;;21.20;12.40;;;;;;;;;;5018825;28;20178;-75
2022/12/15 06:34:46;;;;;;;19.63;11.03;;;;;;;;;;5012872;28;20191;-75
2022/12/15 06:37:11;;;;;;;20.03;12.17;;;;;;;;;;5017272;28;20629;-75
2022/12/15 06:39:36;;;;;;;23.23;11.07;;;;;;;;;;5014487;28;20292;-75
2022/12/15 06:42:02;;;;;;;22.97;12.40;;;;;;;;;;5017726;28;20190;-75
2022/12/15 06:44:27;;;;;;;23.10;10.97;;;;;;;;;;5016548;28;20207;-75
2022/12/15 06:46:52;;;;;;;21.37;12.13;;;;;;;;;;5013475;28;20182;-75
2022/12/15 06:49:17;;;;;;;18.20;11.07;;;;;;;;;;5014151;28;20234;-75
2022/12/15 06:51:43;;;;;;;24.70;13.00;;;;;;;;;;5012079;28;20173;-75
2022/12/15 06:54:09;;;;;;;20.83;11.90;;;;;;;;;;5014433;28;20258;-75
2022/12/15 06:56:35;;;;;;;21.30;11.63;;;;;;;;;;5011093;28;20178;-75
2022/12/15 06:59:01;;;;;;;19.77;11.77;;;;;;;;;;5013009;28;20206;-75
2022/12/15 07:01:26;;;;;;;23.57;12.10;;;;;;;;;;5003199;28;20260;-75
2022/12/15 07:03:51;;;;;;;24.17;12.67;;;;;;;;;;5011303;28;20203;-75
2022/12/15 07:06:17;;;;;;;23.83;12.07;;;;;;;;;;5009862;28;20222;-75
2022/12/15 07:08:43;;;;;;;23.87;12.10;;;;;;;;;;5010507;28;20194;-75
2022/12/15 07:11:10;;;;;;;21.70;11.90;;;;;;;;;;5015256;28;20181;-75
2022/12/15 07:13:35;;;;;;;19.80;11.27;;;;;;;;;;5016372;28;20237;-76
2022/12/15 07:16:02;;;;;;;24.97;12.87;;;;;;;;;;5014982;28;20208;-75
2022/12/15 07:18:28;;;;;;;22.30;12.33;;;;;;;;;;5012350;28;20230;-75
2022/12/15 07:20:53;;;;;;;21.70;13.23;;;;;;;;;;5010848;28;20203;-75
2022/12/15 07:23:18;;;;;;;22.10;12.10;;;;;;;;;;5008861;28;20265;-75
2022/12/15 07:25:43;;;;;;;22.07;12.20;;;;;;;;;;5006751;28;20540;-75
2022/12/15 07:28:10;;;;;;;22.87;13.17;;;;;;;;;;5009357;28;20205;-75
2022/12/15 07:30:35;;;;;;;24.37;13.77;;;;;;;;;;5013376;28;20174;-76
2022/12/15 07:33:00;;;;;;;23.10;13.10;;;;;;;;;;5011154;28;20175;-75
2022/12/15 07:35:26;;;;;;;22.67;13.70;;;;;;;;;;5011825;28;20182;-76
2022/12/15 07:37:51;;;;;;;23.20;12.27;;;;;;;;;;5014144;28;20190;-75
2022/12/15 07:40:16;;;;;;;21.60;11.90;;;;;;;;;;5012058;28;20549;-75
2022/12/15 07:42:41;;;;;;;25.87;13.73;;;;;;;;;;5012720;28;20657;-75
2022/12/15 07:45:07;;;;;;;30.07;14.23;;;;;;;;;;5012320;28;20217;-76
2022/12/15 07:47:32;;;;;;;23.10;12.80;;;;;;;;;;5010228;28;20187;-75
2022/12/15 07:49:57;;;;;;;22.80;12.53;;;;;;;;;;5013088;28;20703;-75
2022/12/15 07:52:23;;;;;;;26.00;14.03;;;;;;;;;;5010916;28;20182;-76
2022/12/15 07:54:48;;;;;;;24.13;13.67;;;;;;;;;;5014635;28;20640;-76
2022/12/15 07:57:13;;;;;;;23.53;12.43;;;;;;;;;;5011240;28;20191;-75
2022/12/15 07:59:38;;;;;;;22.27;13.33;;;;;;;;;;5011471;28;20202;-76
2022/12/15 08:02:03;;;;;;;27.73;13.43;;;;;;;;;;5016616;28;20194;-75
2022/12/15 08:04:32;;;;;;;25.03;14.00;;;;;;;;;;5012842;28;20197;-76
2022/12/15 08:06:57;;;;;;;23.87;13.97;;;;;;;;;;5010202;28;20921;-75
2022/12/15 08:09:23;;;;;;;22.27;13.73;;;;;;;;;;5009475;28;20217;-75
2022/12/15 08:11:49;;;;;;;21.10;12.93;;;;;;;;;;5007845;28;20175;-75
2022/12/15 08:14:14;;;;;;;22.17;13.97;;;;;;;;;;5009751;28;20187;-75
2022/12/15 08:16:39;;;;;;;29.07;14.97;;;;;;;;;;5011023;28;20205;-75
2022/12/15 08:19:05;;;;;;;25.07;14.40;;;;;;;;;;5009853;28;20230;-75
2022/12/15 08:21:31;;;;;;;29.37;15.67;;;;;;;;;;5014134;28;20687;-75
2022/12/15 08:23:56;;;;;;;28.77;15.10;;;;;;;;;;5011965;28;20206;-74
2022/12/15 08:26:22;;;;;;;31.20;16.70;;;;;;;;;;5012240;28;20175;-75
2022/12/15 08:28:47;;;;;;;23.20;14.23;;;;;;;;;;5009549;28;20597;-75
2022/12/15 08:31:18;;;;;;;28.60;15.83;;;;;;;;;;5006922;28;20644;-76
2022/12/15 08:33:43;;;;;;;30.47;16.37;;;;;;;;;;5014836;28;20183;-76
2022/12/15 08:36:10;;;;;;;26.80;15.90;;;;;;;;;;5016678;28;20178;-75
2022/12/15 08:38:37;;;;;;;31.93;16.93;;;;;;;;;;5004294;28;20688;-75
2022/12/15 08:41:06;;;;;;;29.77;17.10;;;;;;;;;;5009700;28;20183;-75
2022/12/15 08:43:31;;;;;;;30.53;17.07;;;;;;;;;;5011102;28;20596;-76
2022/12/15 08:45:58;;;;;;;34.13;18.37;;;;;;;;;;5011927;28;20167;-75
2022/12/15 08:48:23;;;;;;;31.73;17.40;;;;;;;;;;5009916;28;20221;-75
2022/12/15 08:50:49;;;;;;;38.63;18.53;;;;;;;;;;5007615;28;20671;-76
2022/12/15 08:53:14;;;;;;;35.53;19.53;;;;;;;;;;5011117;28;20179;-75
2022/12/15 08:55:39;;;;;;;30.40;18.43;;;;;;;;;;5009931;28;20174;-76
2022/12/15 08:58:04;;;;;;;32.43;17.70;;;;;;;;;;5011901;28;20648;-75
2022/12/15 09:00:29;;;;;;;36.93;18.90;;;;;;;;;;5009193;28;20245;-75
2022/12/15 09:02:55;;;;;;;38.17;20.03;;;;;;;;;;5010493;28;20171;-74
2022/12/15 09:05:20;;;;;;;31.80;18.00;;;;;;;;;;5008981;28;20198;-75
2022/12/15 09:07:45;;;;;;;30.20;17.93;;;;;;;;;;5011724;28;20233;-75
2022/12/15 09:10:10;;;;;;;36.97;20.20;;;;;;;;;;5008270;28;20210;-74
2022/12/15 09:12:35;;;;;;;33.97;19.27;;;;;;;;;;5009503;28;20179;-75
2022/12/15 09:15:01;;;;;;;38.87;22.97;;;;;;;;;;5012085;28;20258;-75
2022/12/15 09:17:26;;;;;;;39.83;21.27;;;;;;;;;;5012593;28;20205;-73
2022/12/15 09:19:52;;;;;;;42.60;23.03;;;;;;;;;;5009729;28;20258;-75
2022/12/15 09:22:18;;;;;;;43.53;24.23;;;;;;;;;;5009273;28;20191;-75
2022/12/15 09:24:43;;;;;;;39.00;23.17;;;;;;;;;;5011780;28;20249;-74
2022/12/15 09:27:08;;;;;;;43.23;25.20;;;;;;;;;;5011254;28;20171;-74
2022/12/15 09:29:34;;;;;;;49.37;25.60;;;;;;;;;;5031842;22;20607;-70
2022/12/15 09:31:59;;;;;;;47.73;25.83;;;;;;;;;;5029028;28;20255;-70
2022/12/15 09:34:24;;;;;;;34.70;23.00;;;;;;;;;;5031755;28;20178;-69
2022/12/15 09:36:50;;;;;;;35.40;21.60;;;;;;;;;;5030130;28;20532;-69
2022/12/15 09:39:15;;;;;;;27.60;19.77;;;;;;;;;;5024151;28;20729;-68
2022/12/15 09:41:42;;;;;;;28.13;18.90;;;;;;;;;;5028982;28;20648;-69
2022/12/15 09:44:07;;;;;;;27.97;19.90;;;;;;;;;;5030703;28;20228;-69
2022/12/15 09:46:36;;;;;;;27.77;18.43;;;;;;;;;;5031199;28;20182;-69
2022/12/15 09:49:03;;;;;;;25.43;17.93;;;;;;;;;;5033401;28;20198;-69
2022/12/15 09:51:34;;;;;;;27.37;17.87;;;;;;;;;;5032950;28;20182;-70
2022/12/15 09:54:00;;;;;;;27.83;17.57;;;;;;;;;;5028052;28;20737;-69
2022/12/15 09:56:30;;;;;;;28.93;17.30;;;;;;;;;;5031373;28;20170;-69
2022/12/15 09:59:00;;;;;;;30.33;18.27;;;;;;;;;;5032424;28;20286;-70
2022/12/15 10:01:32;;;;;;;28.13;16.67;;;;;;;;;;5030704;28;20189;-70
2022/12/15 10:04:26;;;;;;;29.83;18.50;;;;;;;;;;5031432;28;20233;-71
2022/12/15 10:06:52;;;;;;;30.40;18.23;;;;;;;;;;5022882;28;20265;-69
2022/12/15 10:09:19;;;;;;;25.83;17.40;;;;;;;;;;5023639;28;20297;-70
2022/12/15 10:11:50;;;;;;;25.30;17.03;;;;;;;;;;5029347;28;20175;-70
2022/12/15 10:14:22;;;;;;;29.87;18.57;;;;;;;;;;5030764;28;20178;-71
2022/12/15 10:16:53;;;;;;;23.83;15.30;;;;;;;;;;5034491;28;20189;-70
2022/12/15 10:19:18;;;;;;;26.23;17.03;;;;;;;;;;5030745;28;20201;-70
2022/12/15 10:21:44;;;;;;;25.27;16.97;;;;;;;;;;5028287;28;20182;-69
2022/12/15 10:24:20;;;;;;;24.93;17.13;;;;;;;;;;5031150;28;20305;-70
2022/12/15 10:26:54;;;;;;;25.40;16.77;;;;;;;;;;5031357;28;20182;-70
2022/12/15 10:29:45;;;;;;;25.27;17.00;;;;;;;;;;5030849;28;20217;-70
2022/12/15 10:32:18;;;;;;;28.53;15.83;;;;;;;;;;5024654;28;20220;-69
2022/12/15 10:34:44;;;;;;;25.77;17.00;;;;;;;;;;5024455;28;20186;-70
2022/12/15 10:37:19;;;;;;;27.87;18.03;;;;;;;;;;5031366;28;20182;-70
2022/12/15 10:39:46;;;;;;;27.30;16.13;;;;;;;;;;5027685;28;20205;-69
2022/12/15 10:42:24;;;;;;;26.90;17.33;;;;;;;;;;5030832;28;20663;-70
2022/12/15 10:44:56;;;;;;;25.53;16.63;;;;;;;;;;5030781;28;20618;-70
2022/12/15 10:47:22;;;;;;;28.80;18.40;;;;;;;;;;5028309;28;20253;-70
2022/12/15 10:49:47;;;;;;;30.13;18.17;;;;;;;;;;5027750;28;20211;-69
2022/12/15 10:52:15;;;;;;;30.70;17.97;;;;;;;;;;5027128;28;20178;-70
2022/12/15 10:54:43;;;;;;;30.40;18.47;;;;;;;;;;5028187;28;20648;-69
2022/12/15 10:57:15;;;;;;;28.70;17.73;;;;;;;;;;5028848;28;20273;-70
2022/12/15 10:59:40;;;;;;;29.57;19.60;;;;;;;;;;5029456;28;20204;-69
2022/12/15 11:02:22;;;;;;;30.33;17.90;;;;;;;;;;5033658;28;20182;-69
2022/12/15 11:05:14;;;;;;;27.13;18.73;;;;;;;;;;5027171;28;20199;-70
2022/12/15 11:07:41;;;;;;;26.17;16.90;;;;;;;;;;5032835;28;20186;-70
2022/12/15 11:10:14;;;;;;;24.30;16.40;;;;;;;;;;5034038;28;20638;-70
2022/12/15 11:12:52;;;;;;;31.30;18.77;;;;;;;;;;5033266;28;20236;-70
2022/12/15 11:15:20;;;;;;;23.67;16.77;;;;;;;;;;5034285;28;20174;-70
2022/12/15 11:17:47;;;;;;;29.73;19.07;;;;;;;;;;5033276;28;20198;-70
2022/12/15 11:20:21;;;;;;;25.77;18.20;;;;;;;;;;5034098;28;20202;-69
2022/12/15 11:22:51;;;;;;;30.07;17.47;;;;;;;;;;5033477;28;20186;-70
2022/12/15 11:25:17;;;;;;;26.20;16.80;;;;;;;;;;5034253;28;20268;-70
2022/12/15 11:27:43;;;;;;;27.30;18.10;;;;;;;;;;5033717;28;20171;-70
2022/12/15 11:30:12;;;;;;;21.77;16.77;;;;;;;;;;5032869;28;20210;-70
2022/12/15 11:32:38;;;;;;;24.17;17.37;;;;;;;;;;5031079;28;20301;-70
2022/12/15 11:35:05;;;;;;;25.03;17.57;;;;;;;;;;5034043;28;20186;-70
2022/12/15 11:37:50;;;;;;;29.80;18.53;;;;;;;;;;5033764;28;20205;-70
2022/12/15 11:40:18;;;;;;;23.03;16.23;;;;;;;;;;5021373;28;20214;-70
2022/12/15 11:42:49;;;;;;;24.57;17.07;;;;;;;;;;5031224;28;20613;-70
2022/12/15 11:45:17;;;;;;;22.33;16.60;;;;;;;;;;5033574;28;20300;-70
2022/12/15 11:47:44;;;;;;;25.80;16.30;;;;;;;;;;5033695;28;20182;-70
2022/12/15 11:50:16;;;;;;;31.63;17.37;;;;;;;;;;5033606;28;20194;-70
2022/12/15 11:52:47;;;;;;;23.83;14.83;;;;;;;;;;5032906;28;20269;-70
2022/12/15 11:55:27;;;;;;;23.97;16.17;;;;;;;;;;5032162;28;20190;-70
2022/12/15 11:58:00;;;;;;;23.90;16.57;;;;;;;;;;5024881;28;20202;-70
2022/12/15 12:00:29;;;;;;;21.00;15.53;;;;;;;;;;5033968;28;20210;-70
2022/12/15 12:02:54;;;;;;;24.43;15.77;;;;;;;;;;5032509;28;20182;-70
2022/12/15 12:05:19;;;;;;;23.20;15.47;;;;;;;;;;5033168;28;20209;-71
2022/12/15 12:07:47;;;;;;;20.87;14.63;;;;;;;;;;5030929;28;20175;-71
2022/12/15 12:10:30;;;;;;;23.37;16.50;;;;;;;;;;5031224;28;20228;-71
2022/12/15 12:13:01;;;;;;;23.70;14.63;;;;;;;;;;5030768;28;20181;-71
2022/12/15 12:15:47;;;;;;;22.10;14.30;;;;;;;;;;5024701;28;20216;-71
2022/12/15 12:18:23;;;;;;;21.33;14.67;;;;;;;;;;5027623;28;20182;-73
2022/12/15 12:20:51;;;;;;;20.77;15.03;;;;;;;;;;5025486;28;20182;-70
2022/12/15 12:23:20;;;;;;;19.40;14.40;;;;;;;;;;5030159;28;20174;-70
2022/12/15 12:26:05;;;;;;;24.30;14.87;;;;;;;;;;5025432;28;20197;-71
2022/12/15 12:28:38;;;;;;;23.13;15.53;;;;;;;;;;5030530;28;20206;-72
2022/12/15 12:31:04;;;;;;;20.83;15.37;;;;;;;;;;5031670;28;20267;-71
2022/12/15 12:33:38;;;;;;;21.23;14.67;;;;;;;;;;5031952;28;20596;-71
2022/12/15 12:36:10;;;;;;;21.47;15.30;;;;;;;;;;5029420;28;20225;-71
2022/12/15 12:38:38;;;;;;;17.77;13.80;;;;;;;;;;5031086;28;20188;-70
2022/12/15 12:41:03;;;;;;;21.10;14.97;;;;;;;;;;5020061;28;20579;-71
2022/12/15 12:43:32;;;;;;;22.10;14.23;;;;;;;;;;5029041;28;20190;-71
2022/12/15 12:46:19;;;;;;;15.80;13.27;;;;;;;;;;5030387;28;20186;-71
2022/12/15 12:48:49;;;;;;;19.57;14.80;;;;;;;;;;5030792;28;20264;-70
2022/12/15 12:51:20;;;;;;;19.17;13.80;;;;;;;;;;5029819;28;20272;-70
2022/12/15 12:53:45;;;;;;;18.47;13.33;;;;;;;;;;5029400;28;20194;-71
2022/12/15 12:56:29;;;;;;;16.93;12.67;;;;;;;;;;5030553;28;20178;-70
2022/12/15 12:58:54;;;;;;;20.93;13.37;;;;;;;;;;5029120;28;20429;-70
2022/12/15 13:01:29;;;;;;;18.57;13.40;;;;;;;;;;5028891;28;20178;-70
2022/12/15 13:04:05;;;;;;;19.07;12.90;;;;;;;;;;5030896;28;20170;-71
2022/12/15 13:06:33;;;;;;;20.40;13.53;;;;;;;;;;5031618;28;20205;-70
2022/12/15 13:09:18;;;;;;;19.00;13.70;;;;;;;;;;5031235;28;20205;-70
2022/12/15 13:11:46;;;;;;;19.13;12.73;;;;;;;;;;5029828;28;20174;-70
2022/12/15 13:14:14;;;;;;;19.07;13.30;;;;;;;;;;5030858;28;20891;-70
2022/12/15 13:16:39;;;;;;;17.73;12.07;;;;;;;;;;5030925;28;20362;-70
2022/12/15 13:19:07;;;;;;;19.27;13.50;;;;;;;;;;5030745;28;20214;-70
2022/12/15 13:21:42;;;;;;;23.43;13.33;;;;;;;;;;5023696;28;20275;-70
2022/12/15 13:24:19;;;;;;;20.47;12.83;;;;;;;;;;5030935;28;20272;-70
2022/12/15 13:26:44;;;;;;;18.87;13.20;;;;;;;;;;5030554;28;20698;-71
2022/12/15 13:29:13;;;;;;;19.40;13.87;;;;;;;;;;5031452;28;20413;-70
2022/12/15 13:31:42;;;;;;;20.07;12.60;;;;;;;;;;5029631;28;20208;-71
2022/12/15 13:34:10;;;;;;;20.27;13.83;;;;;;;;;;5028278;28;20344;-70
2022/12/15 13:36:35;;;;;;;20.43;13.37;;;;;;;;;;5030593;28;20256;-70
2022/12/15 13:39:02;;;;;;;22.40;14.67;;;;;;;;;;5029316;28;20198;-70
2022/12/15 13:41:27;;;;;;;17.73;13.93;;;;;;;;;;5032029;28;20281;-71
2022/12/15 13:43:53;;;;;;;18.87;12.83;;;;;;;;;;5030043;28;20684;-71
2022/12/15 13:46:23;;;;;;;16.87;12.20;;;;;;;;;;5031433;28;20285;-70
2022/12/15 13:49:03;;;;;;;18.73;12.73;;;;;;;;;;5029326;28;20198;-71
2022/12/15 13:51:29;;;;;;;19.10;12.77;;;;;;;;;;5029316;28;20212;-71
2022/12/15 13:54:16;;;;;;;17.03;12.30;;;;;;;;;;5029058;28;20170;-71
2022/12/15 13:56:48;;;;;;;19.77;13.63;;;;;;;;;;5028638;28;20175;-71
2022/12/15 13:59:32;;;;;;;19.33;13.13;;;;;;;;;;5030283;28;20198;-70
2022/12/15 14:01:57;;;;;;;15.37;11.93;;;;;;;;;;5027422;28;20528;-71
2022/12/15 14:04:22;;;;;;;18.20;12.70;;;;;;;;;;5027719;28;20240;-70
2022/12/15 14:06:52;;;;;;;19.83;13.37;;;;;;;;;;5025497;28;20214;-71
2022/12/15 14:09:29;;;;;;;18.13;13.83;;;;;;;;;;5025637;28;20198;-71
2022/12/15 14:11:55;;;;;;;18.73;13.30;;;;;;;;;;5023978;28;20202;-72
2022/12/15 14:14:23;;;;;;;19.13;14.03;;;;;;;;;;5029716;28;20198;-71
2022/12/15 14:16:53;;;;;;;19.43;13.70;;;;;;;;;;5029553;28;20179;-71
2022/12/15 14:19:18;;;;;;;21.67;14.77;;;;;;;;;;5030369;28;20222;-71
2022/12/15 14:21:48;;;;;;;19.73;12.77;;;;;;;;;;5031514;28;20175;-71
2022/12/15 14:24:29;;;;;;;21.17;14.07;;;;;;;;;;5031858;28;20237;-71
2022/12/15 14:26:55;;;;;;;20.97;13.90;;;;;;;;;;5030680;28;20218;-71
2022/12/15 14:29:20;;;;;;;23.93;13.90;;;;;;;;;;5029894;28;20248;-71
2022/12/15 14:31:48;;;;;;;21.47;14.20;;;;;;;;;;5030043;28;20210;-71
2022/12/15 14:34:25;;;;;;;19.70;14.30;;;;;;;;;;5026773;28;20220;-71
2022/12/15 14:36:51;;;;;;;22.67;14.70;;;;;;;;;;5033129;28;20663;-71
2022/12/15 14:39:22;;;;;;;21.00;14.17;;;;;;;;;;5030605;28;20281;-71
2022/12/15 14:41:49;;;;;;;20.77;13.00;;;;;;;;;;5036728;28;20178;-71
2022/12/15 14:44:17;;;;;;;20.23;14.00;;;;;;;;;;5030873;28;20182;-70
2022/12/15 14:46:47;;;;;;;19.93;13.27;;;;;;;;;;5032507;28;20270;-70
2022/12/15 14:49:17;;;;;;;22.57;13.90;;;;;;;;;;5032334;28;20217;-70
2022/12/15 14:51:45;;;;;;;19.17;13.70;;;;;;;;;;5030087;28;20193;-70
2022/12/15 14:54:29;;;;;;;21.57;14.57;;;;;;;;;;5030394;28;20214;-71
2022/12/15 14:57:12;;;;;;;20.10;13.73;;;;;;;;;;5031740;28;20228;-70
2022/12/15 14:59:39;;;;;;;20.67;14.53;;;;;;;;;;5030731;28;20305;-70
2022/12/15 15:02:12;;;;;;;22.17;14.83;;;;;;;;;;5032755;28;20190;-71
2022/12/15 15:04:38;;;;;;;22.80;15.40;;;;;;;;;;5033667;28;20528;-70
2022/12/15 15:07:05;;;;;;;24.00;14.87;;;;;;;;;;5033725;28;20182;-71
2022/12/15 15:09:40;;;;;;;23.97;15.23;;;;;;;;;;5032014;28;20218;-70
2022/12/15 15:12:07;;;;;;;18.93;14.07;;;;;;;;;;5032865;28;20186;-70
2022/12/15 15:14:37;;;;;;;24.03;14.90;;;;;;;;;;5026865;28;20190;-71
2022/12/15 15:17:12;;;;;;;21.00;14.43;;;;;;;;;;5033217;28;20182;-70
2022/12/15 15:19:38;;;;;;;24.80;14.73;;;;;;;;;;5031279;28;20206;-70
2022/12/15 15:22:04;;;;;;;24.13;15.63;;;;;;;;;;5032301;28;20202;-70
2022/12/15 15:24:38;;;;;;;28.40;16.40;;;;;;;;;;5032031;28;20696;-70
2022/12/15 15:27:22;;;;;;;21.47;15.67;;;;;;;;;;5033053;28;20269;-70
2022/12/15 15:29:48;;;;;;;30.43;17.53;;;;;;;;;;5048206;22;20230;-78
2022/12/15 15:32:13;;;;;;;25.23;15.53;;;;;;;;;;5038458;28;20228;-78
2022/12/15 15:34:38;;;;;;;22.27;16.17;;;;;;;;;;5036849;28;20194;-78
2022/12/15 15:37:04;;;;;;;24.63;17.60;;;;;;;;;;5038234;28;20260;-78
2022/12/15 15:39:31;;;;;;;28.47;16.97;;;;;;;;;;5038371;28;20205;-78
2022/12/15 15:41:56;;;;;;;23.97;16.37;;;;;;;;;;5037394;28;20179;-78
2022/12/15 15:44:21;;;;;;;26.83;18.63;;;;;;;;;;5037568;28;20220;-78
2022/12/15 15:46:50;;;;;;;24.07;15.87;;;;;;;;;;5041668;28;20696;-78
2022/12/15 15:49:17;;;;;;;28.63;17.27;;;;;;;;;;5039043;28;20212;-78
2022/12/15 15:51:43;;;;;;;36.93;21.90;;;;;;;;;;5028641;28;20186;-77
2022/12/15 15:54:16;;;;;;;37.60;21.93;;;;;;;;;;5034025;28;20229;-77
2022/12/15 15:56:41;;;;;;;35.00;21.47;;;;;;;;;;5034599;28;20198;-77
2022/12/15 15:59:13;;;;;;;38.13;23.60;;;;;;;;;;5038192;28;20661;-78
2022/12/15 16:01:38;;;;;;;36.73;21.90;;;;;;;;;;5033985;28;20262;-77
2022/12/15 16:04:05;;;;;;;35.03;20.53;;;;;;;;;;5034589;28;20609;-77
2022/12/15 16:06:30;;;;;;;31.90;20.17;;;;;;;;;;5033417;28;20186;-78
2022/12/15 16:08:55;;;;;;;27.97;19.97;;;;;;;;;;5026930;28;20247;-78
2022/12/15 16:11:21;;;;;;;35.40;21.23;;;;;;;;;;5030805;28;20181;-78
2022/12/15 16:13:47;;;;;;;30.17;19.13;;;;;;;;;;5026654;28;20179;-78
2022/12/15 16:16:20;;;;;;;31.80;20.03;;;;;;;;;;5032697;28;20178;-78
2022/12/15 16:18:45;;;;;;;34.27;20.60;;;;;;;;;;5030490;28;20232;-78
2022/12/15 16:21:12;;;;;;;29.37;20.93;;;;;;;;;;5025067;28;20186;-78
2022/12/15 16:23:38;;;;;;;32.93;21.33;;;;;;;;;;5029933;28;20186;-78
2022/12/15 16:26:04;;;;;;;31.47;20.33;;;;;;;;;;5032130;28;20670;-78
2022/12/15 16:28:30;;;;;;;34.43;22.37;;;;;;;;;;5033143;28;20619;-78
2022/12/15 16:30:57;;;;;;;36.93;22.07;;;;;;;;;;5030224;28;20285;-78
2022/12/15 16:33:22;;;;;;;33.67;20.93;;;;;;;;;;5025719;28;20273;-78
2022/12/15 16:35:48;;;;;;;36.33;22.03;;;;;;;;;;5032006;28;20293;-78
2022/12/15 16:38:24;;;;;;;32.67;21.63;;;;;;;;;;5029798;28;20182;-78
2022/12/15 16:40:50;;;;;;;33.63;20.83;;;;;;;;;;5029149;28;20694;-78
2022/12/15 16:43:19;;;;;;;31.27;20.73;;;;;;;;;;5032626;28;20186;-78
2022/12/15 16:45:46;;;;;;;34.33;21.67;;;;;;;;;;5030771;28;20218;-78